Time;durP1;ratioP1;P1;durP2;ratioP2;P2;SDS_P1;SDS_P2;PMS_P1;PMS_P2;Temp;Humidity;BMP_temperature;BMP_pressure;BME280_temperature;BME280_humidity;BME280_pressure;Samples;Min_cycle;Max_cycle;Signal;HPM_P1;HPM_P2
2023/09/10 00:00:50;;;;;;;22.67;9.82;;;18.40;99.90;;;;;;5003619;28;20495;-66
2023/09/10 00:03:16;;;;;;;17.13;10.90;;;18.40;99.90;;;;;;5011905;28;20053;-65
2023/09/10 00:05:42;;;;;;;18.63;10.15;;;18.40;99.90;;;;;;5003529;28;20113;-65
2023/09/10 00:08:07;;;;;;;26.98;11.43;;;18.40;99.90;;;;;;4999300;28;20444;-65
2023/09/10 00:10:33;;;;;;;26.17;11.32;;;18.40;99.90;;;;;;4995736;28;20034;-65
2023/09/10 00:12:59;;;;;;;19.42;11.88;;;18.40;99.90;;;;;;4999606;28;20088;-66
2023/09/10 00:15:24;;;;;;;28.98;11.35;;;18.30;99.90;;;;;;4999478;28;20109;-66
2023/09/10 00:17:51;;;;;;;21.45;10.43;;;18.30;99.90;;;;;;5006975;28;20030;-66
2023/09/10 00:20:17;;;;;;;23.55;10.98;;;18.30;99.90;;;;;;4991291;28;20050;-65
2023/09/10 00:22:42;;;;;;;26.30;11.35;;;18.20;99.90;;;;;;5022769;28;20030;-65
2023/09/10 00:25:09;;;;;;;21.40;11.25;;;18.10;99.90;;;;;;5006003;28;20116;-64
2023/09/10 00:27:35;;;;;;;16.45;10.55;;;18.10;99.90;;;;;;4996374;28;20504;-64
2023/09/10 00:30:01;;;;;;;25.25;12.90;;;18.00;99.90;;;;;;5002390;28;20088;-65
2023/09/10 00:32:26;;;;;;;22.17;10.50;;;18.00;99.90;;;;;;5004301;28;20116;-66
2023/09/10 00:34:52;;;;;;;25.25;11.38;;;18.00;99.90;;;;;;5002204;28;20475;-65
2023/09/10 00:37:18;;;;;;;28.85;12.10;;;18.10;99.90;;;;;;5001914;28;20475;-63
2023/09/10 00:39:44;;;;;;;16.33;11.20;;;18.00;99.90;;;;;;4995596;28;20034;-65
2023/09/10 00:42:10;;;;;;;23.95;12.43;;;18.00;99.90;;;;;;5001609;28;20035;-65
2023/09/10 00:44:40;;;;;;;21.02;12.10;;;18.00;99.90;;;;;;5003674;28;20080;-65
2023/09/10 00:47:06;;;;;;;24.50;12.13;;;18.00;99.90;;;;;;5007547;28;20052;-65
2023/09/10 00:49:32;;;;;;;22.88;12.20;;;18.00;99.90;;;;;;5007980;28;20499;-65
2023/09/10 00:52:00;;;;;;;25.20;11.65;;;18.00;99.90;;;;;;5006638;28;20495;-65
2023/09/10 00:54:30;;;;;;;19.00;11.68;;;17.90;99.90;;;;;;5000681;28;20019;-65
2023/09/10 00:56:56;;;;;;;18.45;10.20;;;17.90;99.90;;;;;;4998741;28;20034;-65
2023/09/10 00:59:21;;;;;;;21.00;10.90;;;17.90;99.90;;;;;;5009419;28;20029;-66
2023/09/10 01:01:48;;;;;;;29.02;12.23;;;17.80;99.90;;;;;;5006613;28;20080;-66
2023/09/10 01:04:16;;;;;;;22.05;11.90;;;17.80;99.90;;;;;;5006531;28;20487;-66
2023/09/10 01:06:42;;;;;;;20.00;10.85;;;17.80;99.90;;;;;;5003306;28;20093;-66
2023/09/10 01:09:08;;;;;;;30.15;12.15;;;17.80;99.90;;;;;;5005859;28;20065;-65
2023/09/10 01:11:48;;;;;;;29.90;12.85;;;17.80;99.90;;;;;;5003943;28;20487;-65
2023/09/10 01:14:31;;;;;;;21.48;13.00;;;17.80;99.90;;;;;;5005161;28;20038;-65
2023/09/10 01:16:59;;;;;;;21.05;11.73;;;17.80;99.90;;;;;;5001944;28;20626;-65
2023/09/10 01:19:43;;;;;;;21.95;11.90;;;17.70;99.90;;;;;;5008258;28;20502;-66
2023/09/10 01:22:39;;;;;;;20.98;11.27;;;17.70;99.90;;;;;;5000660;28;20117;-65
2023/09/10 01:25:06;;;;;;;20.98;11.68;;;17.60;99.90;;;;;;5010122;28;20053;-65
2023/09/10 01:27:31;;;;;;;23.33;12.50;;;17.60;99.90;;;;;;5009246;28;20146;-66
2023/09/10 01:29:57;;;;;;;22.63;12.20;;;17.60;99.90;;;;;;5003183;28;20195;-65
2023/09/10 01:32:48;;;;;;;28.55;11.63;;;17.70;99.90;;;;;;5003361;28;20022;-65
2023/09/10 01:35:25;;;;;;;24.80;10.90;;;17.70;99.90;;;;;;4998313;28;20484;-65
2023/09/10 01:38:35;;;;;;;19.92;11.30;;;17.60;99.90;;;;;;5004401;28;20038;-66
2023/09/10 01:41:06;;;;;;;26.05;12.23;;;17.50;99.90;;;;;;4967012;28;20487;-66
2023/09/10 01:43:33;;;;;;;24.70;11.98;;;17.50;99.90;;;;;;5001125;28;20033;-65
2023/09/10 01:45:59;;;;;;;28.85;12.95;;;17.50;99.90;;;;;;5005279;28;20029;-65
2023/09/10 01:48:26;;;;;;;29.15;11.60;;;17.40;99.90;;;;;;5004519;28;20093;-65
2023/09/10 01:50:53;;;;;;;21.23;11.65;;;17.40;99.90;;;;;;5009172;23;20080;-64
2023/09/10 01:53:18;;;;;;;24.60;12.65;;;17.40;99.90;;;;;;5000666;28;20029;-60
2023/09/10 01:55:45;;;;;;;19.30;12.60;;;17.40;99.90;;;;;;5005377;28;20038;-63
2023/09/10 01:58:13;;;;;;;22.00;12.07;;;17.30;99.90;;;;;;5005910;28;20026;-64
2023/09/10 02:00:41;;;;;;;21.10;11.60;;;17.30;99.90;;;;;;4994804;28;20030;-65
2023/09/10 02:03:07;;;;;;;22.58;13.20;;;17.30;99.90;;;;;;4986140;28;20391;-65
2023/09/10 02:05:32;;;;;;;24.13;12.40;;;17.30;99.90;;;;;;4992331;28;20112;-64
2023/09/10 02:07:58;;;;;;;27.38;12.95;;;17.30;99.90;;;;;;4985781;28;20438;-65
2023/09/10 02:10:24;;;;;;;25.38;12.60;;;17.30;99.90;;;;;;4989225;28;20484;-64
2023/09/10 02:12:50;;;;;;;29.30;12.85;;;17.30;99.90;;;;;;4990693;28;20030;-65
2023/09/10 02:15:17;;;;;;;23.00;10.93;;;17.30;99.90;;;;;;4991463;28;20026;-67
2023/09/10 02:17:43;;;;;;;26.75;12.82;;;17.30;99.90;;;;;;4986796;28;20030;-64
2023/09/10 02:20:09;;;;;;;24.08;12.43;;;17.30;99.90;;;;;;4992675;28;20561;-64
2023/09/10 02:22:38;;;;;;;25.08;11.77;;;17.30;99.90;;;;;;4993192;28;20030;-65
2023/09/10 02:25:04;;;;;;;38.10;13.15;;;17.20;99.90;;;;;;4991614;28;20073;-65
2023/09/10 02:27:31;;;;;;;20.35;12.00;;;17.20;99.90;;;;;;4994037;28;20064;-64
2023/09/10 02:29:57;;;;;;;23.80;11.02;;;17.20;99.90;;;;;;4993806;28;20018;-64
2023/09/10 02:32:23;;;;;;;37.13;13.05;;;17.10;99.90;;;;;;4994117;28;20571;-65
2023/09/10 02:34:51;;;;;;;20.23;11.70;;;17.20;99.90;;;;;;4988451;28;20019;-63
2023/09/10 02:37:17;;;;;;;21.50;12.05;;;17.20;99.90;;;;;;4993397;28;20015;-63
2023/09/10 02:39:43;;;;;;;21.63;11.65;;;17.10;99.90;;;;;;4996356;28;20484;-65
2023/09/10 02:42:08;;;;;;;24.05;13.10;;;17.10;99.90;;;;;;4990610;28;20034;-66
2023/09/10 02:44:34;;;;;;;26.30;12.70;;;17.00;99.90;;;;;;4991376;28;20031;-63
2023/09/10 02:47:00;;;;;;;21.63;11.75;;;17.00;99.90;;;;;;4989904;28;20399;-65
2023/09/10 02:49:25;;;;;;;25.02;13.75;;;16.90;99.90;;;;;;4987733;28;20399;-65
2023/09/10 02:51:51;;;;;;;21.08;12.40;;;16.90;99.90;;;;;;4987697;28;20039;-66
2023/09/10 02:54:16;;;;;;;24.85;12.05;;;16.90;99.90;;;;;;4987668;28;20136;-65
2023/09/10 02:56:42;;;;;;;23.00;12.82;;;16.90;99.90;;;;;;4991657;28;20022;-65
2023/09/10 02:59:20;;;;;;;23.17;12.98;;;16.90;99.90;;;;;;4993189;28;20041;-64
2023/09/10 03:01:46;;;;;;;25.50;12.45;;;16.90;99.90;;;;;;4992098;28;20027;-65
2023/09/10 03:04:15;;;;;;;20.70;12.40;;;16.90;99.90;;;;;;4990997;28;20152;-65
2023/09/10 03:06:42;;;;;;;23.27;13.13;;;16.90;99.90;;;;;;4994973;28;20022;-66
2023/09/10 03:09:08;;;;;;;21.98;12.18;;;16.90;99.90;;;;;;4990062;28;20034;-65
2023/09/10 03:11:37;;;;;;;28.15;12.68;;;16.90;99.90;;;;;;4997932;28;20508;-66
2023/09/10 03:14:03;;;;;;;24.02;12.75;;;16.90;99.90;;;;;;4998012;28;20026;-64
2023/09/10 03:16:28;;;;;;;18.00;11.15;;;16.90;99.90;;;;;;4992832;28;20034;-65
2023/09/10 03:18:54;;;;;;;19.10;11.93;;;16.90;99.90;;;;;;4991021;28;20511;-66
2023/09/10 03:21:20;;;;;;;21.92;12.75;;;16.90;99.90;;;;;;4991108;28;20146;-65
2023/09/10 03:23:46;;;;;;;23.08;12.00;;;16.80;99.90;;;;;;4984652;28;20022;-64
2023/09/10 03:26:12;;;;;;;32.40;15.02;;;16.80;99.90;;;;;;4992905;28;20026;-66
2023/09/10 03:28:37;;;;;;;22.08;12.75;;;16.80;99.90;;;;;;5003380;28;20430;-65
2023/09/10 03:31:03;;;;;;;24.58;12.05;;;16.80;99.90;;;;;;4990535;28;20033;-66
2023/09/10 03:33:29;;;;;;;26.40;13.57;;;16.80;99.90;;;;;;4993523;28;20044;-67
2023/09/10 03:35:54;;;;;;;17.30;10.15;;;16.70;99.90;;;;;;4990645;28;20034;-71
2023/09/10 03:38:20;;;;;;;24.38;12.98;;;16.80;99.90;;;;;;4994093;28;20463;-66
2023/09/10 03:40:46;;;;;;;25.50;13.52;;;16.70;99.90;;;;;;4990322;28;20092;-65
2023/09/10 03:43:11;;;;;;;21.75;11.85;;;16.70;99.90;;;;;;4989543;28;20068;-66
2023/09/10 03:45:37;;;;;;;26.50;12.82;;;16.60;99.90;;;;;;4992975;28;20062;-65
2023/09/10 03:48:02;;;;;;;18.73;11.10;;;16.60;99.90;;;;;;4993213;28;20061;-65
2023/09/10 03:50:28;;;;;;;20.15;12.30;;;16.60;99.90;;;;;;4995991;28;20061;-65
2023/09/10 03:52:54;;;;;;;24.25;13.38;;;16.70;99.90;;;;;;4991608;28;20038;-66
2023/09/10 03:55:19;;;;;;;26.83;12.32;;;16.80;99.90;;;;;;4987371;28;20073;-66
2023/09/10 03:57:45;;;;;;;27.38;12.77;;;16.80;99.90;;;;;;4984634;28;20392;-65
2023/09/10 04:00:11;;;;;;;24.75;11.27;;;16.80;99.90;;;;;;4988680;28;20026;-66
2023/09/10 04:02:36;;;;;;;24.20;12.48;;;16.70;99.90;;;;;;5001424;28;20022;-65
2023/09/10 04:05:02;;;;;;;27.65;12.02;;;16.70;99.90;;;;;;4986933;28;20510;-66
2023/09/10 04:07:28;;;;;;;28.33;11.45;;;16.70;99.90;;;;;;4989845;28;20474;-65
2023/09/10 04:09:54;;;;;;;22.80;10.98;;;16.80;99.90;;;;;;4996721;28;20110;-65
2023/09/10 04:12:19;;;;;;;23.40;12.30;;;16.70;99.90;;;;;;4996332;28;20022;-66
2023/09/10 04:14:45;;;;;;;20.83;11.32;;;16.70;99.90;;;;;;4993909;28;20030;-67
2023/09/10 04:17:16;;;;;;;15.13;10.63;;;16.60;99.90;;;;;;4994025;28;20050;-65
2023/09/10 04:19:41;;;;;;;22.13;11.60;;;16.60;99.90;;;;;;4983476;28;20023;-66
2023/09/10 04:22:07;;;;;;;24.90;11.23;;;16.60;99.90;;;;;;4992326;28;20073;-65
2023/09/10 04:24:33;;;;;;;28.15;11.27;;;16.60;99.90;;;;;;4987106;28;20030;-66
2023/09/10 04:26:59;;;;;;;22.25;11.77;;;16.60;99.90;;;;;;4984175;28;20038;-64
2023/09/10 04:29:25;;;;;;;20.88;12.18;;;16.50;99.90;;;;;;4988080;28;20455;-64
2023/09/10 04:31:50;;;;;;;23.42;11.23;;;16.50;99.90;;;;;;4982673;28;20514;-65
2023/09/10 04:34:16;;;;;;;22.75;10.98;;;16.50;99.90;;;;;;4983932;28;20026;-64
2023/09/10 04:36:42;;;;;;;20.48;10.93;;;16.50;99.90;;;;;;4988795;28;20035;-65
2023/09/10 04:39:08;;;;;;;18.50;11.25;;;16.40;99.90;;;;;;4978991;28;20027;-65
2023/09/10 04:41:35;;;;;;;25.17;12.38;;;16.40;99.90;;;;;;4985402;28;20026;-65
2023/09/10 04:44:00;;;;;;;24.42;11.70;;;16.30;99.90;;;;;;4988093;28;20037;-64
2023/09/10 04:46:27;;;;;;;26.48;12.25;;;16.30;99.90;;;;;;4985949;28;20030;-66
2023/09/10 04:48:53;;;;;;;24.55;11.57;;;16.30;99.90;;;;;;4985662;28;20034;-65
2023/09/10 04:51:18;;;;;;;20.90;11.43;;;16.20;99.90;;;;;;4981826;28;20034;-66
2023/09/10 04:53:44;;;;;;;26.60;11.90;;;16.20;99.90;;;;;;4989486;28;20033;-64
2023/09/10 04:56:10;;;;;;;22.48;11.65;;;16.30;99.90;;;;;;4985758;28;20057;-64
2023/09/10 04:58:36;;;;;;;28.50;11.40;;;16.30;99.90;;;;;;4992693;28;20034;-65
2023/09/10 05:01:02;;;;;;;18.63;11.80;;;16.30;99.90;;;;;;4988620;28;20098;-65
2023/09/10 05:03:27;;;;;;;18.45;10.35;;;16.30;99.90;;;;;;4989668;28;20038;-66
2023/09/10 05:06:00;;;;;;;22.50;11.73;;;16.30;99.90;;;;;;4990601;28;20538;-66
2023/09/10 05:08:26;;;;;;;21.50;10.73;;;16.30;99.90;;;;;;4988691;28;20117;-65
2023/09/10 05:10:52;;;;;;;17.42;10.98;;;16.30;99.90;;;;;;4988030;28;20503;-64
2023/09/10 05:13:18;;;;;;;27.20;11.93;;;16.30;99.90;;;;;;4987644;28;20112;-65
2023/09/10 05:15:48;;;;;;;23.80;11.73;;;16.30;99.90;;;;;;4983857;28;20035;-67
2023/09/10 05:18:15;;;;;;;16.85;10.63;;;16.40;99.90;;;;;;4985950;28;20089;-65
2023/09/10 05:20:41;;;;;;;18.00;10.65;;;16.40;99.90;;;;;;4991427;28;20062;-65
2023/09/10 05:23:07;;;;;;;25.85;11.98;;;16.40;99.90;;;;;;4983926;28;20062;-66
2023/09/10 05:25:36;;;;;;;30.40;10.95;;;16.50;99.90;;;;;;4983562;28;20124;-64
2023/09/10 05:28:03;;;;;;;23.92;11.38;;;16.50;99.90;;;;;;4995156;28;20049;-60
2023/09/10 05:30:29;;;;;;;18.80;11.60;;;16.50;99.90;;;;;;4988306;28;20085;-65
2023/09/10 05:32:55;;;;;;;18.45;10.35;;;16.60;99.90;;;;;;4981834;28;20054;-66
2023/09/10 05:35:21;;;;;;;23.48;10.13;;;16.60;99.90;;;;;;4994799;28;20365;-65
2023/09/10 05:37:46;;;;;;;15.88;9.48;;;16.70;99.90;;;;;;4975133;28;20037;-65
2023/09/10 05:40:12;;;;;;;26.38;11.00;;;16.70;99.90;;;;;;4986616;28;20912;-64
2023/09/10 05:42:38;;;;;;;15.10;9.73;;;16.80;99.90;;;;;;4982490;28;20041;-66
2023/09/10 05:45:04;;;;;;;16.77;9.23;;;16.80;99.90;;;;;;4982972;28;20062;-65
2023/09/10 05:47:29;;;;;;;18.83;9.82;;;16.90;99.90;;;;;;4996470;28;20030;-65
2023/09/10 05:49:55;;;;;;;18.63;10.05;;;16.90;99.90;;;;;;4981238;28;20092;-65
2023/09/10 05:52:20;;;;;;;23.17;8.93;;;17.00;99.90;;;;;;4981712;28;20023;-65
2023/09/10 05:54:46;;;;;;;22.73;9.20;;;17.10;99.90;;;;;;4982709;28;20022;-65
2023/09/10 05:57:11;;;;;;;13.70;8.60;;;17.20;99.90;;;;;;4988798;28;20484;-65
2023/09/10 05:59:37;;;;;;;19.33;8.45;;;17.30;99.90;;;;;;4982476;28;20443;-64
2023/09/10 06:02:03;;;;;;;20.25;10.10;;;17.50;99.90;;;;;;4990666;28;20064;-64
2023/09/10 06:04:28;;;;;;;18.33;8.00;;;17.80;99.90;;;;;;4998323;28;20042;-66
2023/09/10 06:06:54;;;;;;;20.25;7.30;;;18.30;99.90;;;;;;4987314;28;20479;-66
2023/09/10 06:09:19;;;;;;;19.33;7.90;;;18.70;99.90;;;;;;4984257;28;20034;-65
2023/09/10 06:11:45;;;;;;;14.30;6.53;;;19.10;99.90;;;;;;4993176;28;20498;-65
2023/09/10 06:14:11;;;;;;;19.75;7.10;;;19.30;99.90;;;;;;4988781;28;20027;-65
2023/09/10 06:16:36;;;;;;;12.77;6.65;;;19.50;99.90;;;;;;4983921;28;20022;-66
2023/09/10 06:19:02;;;;;;;15.52;7.45;;;19.50;99.90;;;;;;4981982;28;20030;-66
2023/09/10 06:21:28;;;;;;;13.73;6.57;;;19.40;99.90;;;;;;4974290;28;20494;-65
2023/09/10 06:23:54;;;;;;;17.73;6.70;;;19.40;99.90;;;;;;4983009;28;20077;-66
2023/09/10 06:26:20;;;;;;;10.40;6.53;;;19.20;99.90;;;;;;4979428;28;20038;-65
2023/09/10 06:28:46;;;;;;;21.50;8.05;;;19.20;99.90;;;;;;4985102;28;20033;-65
2023/09/10 06:31:11;;;;;;;13.18;6.57;;;19.30;99.90;;;;;;4982522;28;20046;-65
2023/09/10 06:33:37;;;;;;;17.48;7.03;;;19.20;99.90;;;;;;4985025;28;20109;-67
2023/09/10 06:36:02;;;;;;;11.27;5.38;;;19.40;99.90;;;;;;4982461;28;20721;-64
2023/09/10 06:38:29;;;;;;;10.05;7.10;;;19.50;99.90;;;;;;4974319;28;20053;-65
2023/09/10 06:40:54;;;;;;;14.75;6.68;;;19.60;99.90;;;;;;4988490;28;20034;-65
2023/09/10 06:43:20;;;;;;;13.55;6.75;;;19.70;99.90;;;;;;4989435;28;20124;-64
2023/09/10 06:45:46;;;;;;;24.50;7.63;;;19.80;99.90;;;;;;4998420;28;20127;-66
2023/09/10 06:48:11;;;;;;;21.13;7.03;;;19.70;99.90;;;;;;4983701;28;20049;-65
2023/09/10 06:50:37;;;;;;;17.85;6.43;;;19.90;99.90;;;;;;4986355;28;20034;-65
2023/09/10 06:53:02;;;;;;;15.15;6.43;;;20.00;99.90;;;;;;4995732;28;20030;-68
2023/09/10 06:55:28;;;;;;;12.35;5.70;;;20.40;99.90;;;;;;4992958;28;20092;-66
2023/09/10 06:57:55;;;;;;;11.45;5.45;;;21.00;99.90;;;;;;4992482;28;20019;-65
2023/09/10 07:00:21;;;;;;;9.52;4.53;;;21.90;99.90;;;;;;4991100;28;20443;-66
2023/09/10 07:02:46;;;;;;;12.50;5.13;;;23.00;99.90;;;;;;4988132;28;20026;-67
2023/09/10 07:05:12;;;;;;;11.02;4.97;;;24.10;99.90;;;;;;4987940;28;20507;-64
2023/09/10 07:07:38;;;;;;;8.55;4.35;;;25.00;99.90;;;;;;4982571;28;20134;-64
2023/09/10 07:10:03;;;;;;;12.02;4.45;;;25.80;99.90;;;;;;4989730;28;20047;-64
2023/09/10 07:12:29;;;;;;;12.07;4.60;;;26.50;99.90;;;;;;4977589;28;20023;-66
2023/09/10 07:14:55;;;;;;;14.48;5.10;;;26.90;99.90;;;;;;4991525;28;20058;-67
2023/09/10 07:17:20;;;;;;;15.48;4.15;;;27.30;99.70;;;;;;4980265;28;20476;-66
2023/09/10 07:19:46;;;;;;;10.15;4.28;;;28.20;99.30;;;;;;4985957;28;20022;-66
2023/09/10 07:22:13;;;;;;;17.50;4.82;;;29.30;96.50;;;;;;4981429;28;20031;-66
2023/09/10 07:24:39;;;;;;;9.20;4.03;;;29.10;95.20;;;;;;4983143;28;20031;-66
2023/09/10 07:27:05;;;;;;;21.17;6.28;;;29.10;95.00;;;;;;4985050;28;20042;-66
2023/09/10 07:29:30;;;;;;;16.50;5.18;;;29.80;93.70;;;;;;4983691;28;20058;-66
2023/09/10 07:31:56;;;;;;;18.00;5.68;;;30.10;92.80;;;;;;4989894;28;20499;-66
2023/09/10 07:34:21;;;;;;;18.02;4.95;;;30.40;93.20;;;;;;4983185;28;20412;-67
2023/09/10 07:36:47;;;;;;;14.95;5.25;;;29.90;92.40;;;;;;4988791;28;20084;-66
2023/09/10 07:39:14;;;;;;;12.85;5.05;;;29.70;92.90;;;;;;4991832;28;20104;-66
2023/09/10 07:41:39;;;;;;;14.98;4.55;;;30.00;93.20;;;;;;4991347;28;20558;-66
2023/09/10 07:44:05;;;;;;;11.30;4.80;;;30.00;92.70;;;;;;4997262;28;20034;-66
2023/09/10 07:46:33;;;;;;;12.32;4.25;;;30.30;92.80;;;;;;4989210;28;20021;-66
2023/09/10 07:48:59;;;;;;;12.60;4.40;;;30.40;93.10;;;;;;4983632;28;20026;-66
2023/09/10 07:51:24;;;;;;;12.13;5.13;;;31.10;91.50;;;;;;4985569;28;20066;-66
2023/09/10 07:53:50;;;;;;;9.90;4.15;;;30.80;91.90;;;;;;4976143;28;20053;-66
2023/09/10 07:56:15;;;;;;;12.63;4.80;;;30.90;92.30;;;;;;4983697;28;20014;-66
2023/09/10 07:58:41;;;;;;;8.77;4.18;;;31.00;91.50;;;;;;4990844;28;20026;-66
2023/09/10 08:01:06;;;;;;;14.88;4.47;;;30.90;91.60;;;;;;4985953;28;20030;-66
2023/09/10 08:03:34;;;;;;;12.77;4.53;;;31.10;91.80;;;;;;4978497;28;20089;-66
2023/09/10 08:06:00;;;;;;;9.52;4.18;;;31.70;91.00;;;;;;4983366;28;20373;-66
2023/09/10 08:08:25;;;;;;;12.10;4.93;;;31.80;90.40;;;;;;4980618;28;20031;-66
2023/09/10 08:10:51;;;;;;;14.43;4.57;;;31.60;90.90;;;;;;4989369;28;20037;-67
2023/09/10 08:13:16;;;;;;;15.05;5.22;;;31.70;90.70;;;;;;4987262;28;20094;-65
2023/09/10 08:15:42;;;;;;;14.93;4.43;;;31.60;91.10;;;;;;4980126;28;20427;-65
2023/09/10 08:18:11;;;;;;;12.63;4.90;;;31.50;91.60;;;;;;4978918;28;20034;-64
2023/09/10 08:20:41;;;;;;;15.85;4.90;;;31.70;90.90;;;;;;4984708;28;20026;-64
2023/09/10 08:23:07;;;;;;;16.60;4.53;;;31.40;90.90;;;;;;4987135;28;20034;-63
2023/09/10 08:25:33;;;;;;;10.77;4.22;;;31.40;90.80;;;;;;4984517;28;20039;-65
2023/09/10 08:27:59;;;;;;;11.10;4.43;;;31.60;90.60;;;;;;4979442;28;20027;-65
2023/09/10 08:30:25;;;;;;;15.48;4.38;;;31.40;90.40;;;;;;4980365;28;20065;-65
2023/09/10 08:32:51;;;;;;;7.82;4.43;;;31.30;90.40;;;;;;4985947;28;20039;-66
2023/09/10 08:35:23;;;;;;;10.75;4.85;;;31.60;90.00;;;;;;4980728;28;20037;-66
2023/09/10 08:37:48;;;;;;;12.93;4.10;;;31.60;90.10;;;;;;4990804;28;20105;-67
2023/09/10 08:40:15;;;;;;;15.32;4.60;;;31.90;89.40;;;;;;4985610;28;20041;-64
2023/09/10 08:43:08;;;;;;;16.60;5.55;;;31.70;89.50;;;;;;4988774;28;20101;-65
2023/09/10 08:45:34;;;;;;;11.23;4.47;;;31.60;90.00;;;;;;4989340;28;20058;-65
2023/09/10 08:48:01;;;;;;;9.85;4.30;;;31.70;90.70;;;;;;4990175;28;20058;-66
2023/09/10 08:50:27;;;;;;;10.07;3.95;;;32.80;88.40;;;;;;4984736;28;20069;-65
2023/09/10 08:52:54;;;;;;;13.25;4.95;;;32.30;89.30;;;;;;4989868;28;20066;-65
2023/09/10 08:55:21;;;;;;;9.85;3.83;;;31.80;90.00;;;;;;4989719;28;20073;-66
2023/09/10 08:57:49;;;;;;;12.05;4.32;;;32.00;90.00;;;;;;4989871;28;20018;-65
2023/09/10 09:00:16;;;;;;;9.88;3.58;;;32.00;88.60;;;;;;4991216;28;20027;-65
2023/09/10 09:02:43;;;;;;;11.73;4.18;;;32.00;88.60;;;;;;4984682;28;20201;-65
2023/09/10 09:05:09;;;;;;;12.80;3.88;;;31.70;89.70;;;;;;4987452;28;20042;-66
2023/09/10 09:08:15;;;;;;;14.35;4.30;;;32.60;87.80;;;;;;4981613;28;20018;-65
2023/09/10 09:10:41;;;;;;;10.45;3.88;;;32.30;88.30;;;;;;4983739;28;20067;-65
2023/09/10 09:13:09;;;;;;;11.90;4.47;;;33.20;85.40;;;;;;4982064;28;20026;-66
2023/09/10 09:15:38;;;;;;;16.65;4.10;;;32.90;83.70;;;;;;4978800;28;20106;-66
2023/09/10 09:18:06;;;;;;;10.68;4.18;;;32.80;86.50;;;;;;4979467;28;20027;-63
2023/09/10 09:20:34;;;;;;;12.85;3.70;;;33.20;85.60;;;;;;4986402;28;20117;-66
2023/09/10 09:23:06;;;;;;;8.93;4.00;;;33.10;85.30;;;;;;4980725;28;20035;-66
2023/09/10 09:25:34;;;;;;;10.80;4.07;;;33.30;82.60;;;;;;4987724;28;20030;-66
2023/09/10 09:28:02;;;;;;;13.88;4.55;;;32.90;84.70;;;;;;4986081;28;20038;-65
2023/09/10 09:30:28;;;;;;;8.35;4.28;;;32.80;84.30;;;;;;4980707;28;20451;-65
2023/09/10 09:32:55;;;;;;;12.40;4.00;;;32.80;79.00;;;;;;4979632;28;20062;-65
2023/09/10 09:35:21;;;;;;;12.13;4.18;;;32.90;78.40;;;;;;4982511;28;20041;-65
2023/09/10 09:37:46;;;;;;;12.45;3.80;;;32.80;79.30;;;;;;4982680;28;20094;-65
2023/09/10 09:40:12;;;;;;;12.30;3.45;;;33.00;81.10;;;;;;4981164;28;20497;-65
2023/09/10 09:42:38;;;;;;;14.82;4.22;;;33.10;80.90;;;;;;4976541;28;20027;-64
2023/09/10 09:45:05;;;;;;;13.70;4.70;;;33.00;81.30;;;;;;4985501;28;20391;-66
2023/09/10 09:47:31;;;;;;;10.32;3.60;;;32.90;79.10;;;;;;4985864;28;20046;-65
2023/09/10 09:49:57;;;;;;;11.35;4.13;;;33.10;81.30;;;;;;4988714;28;20502;-65
2023/09/10 09:52:23;;;;;;;16.92;4.30;;;33.70;80.10;;;;;;4986636;28;20164;-64
2023/09/10 09:54:49;;;;;;;11.05;3.83;;;33.50;81.90;;;;;;4982683;28;20097;-65
2023/09/10 09:57:15;;;;;;;12.13;3.92;;;33.20;81.40;;;;;;4988301;28;20019;-65
2023/09/10 09:59:41;;;;;;;10.20;3.90;;;32.80;83.10;;;;;;4990163;28;20079;-65
2023/09/10 10:02:15;;;;;;;13.43;3.30;;;32.60;80.20;;;;;;4979978;28;20519;-65
2023/09/10 10:04:42;;;;;;;12.25;4.25;;;32.20;84.00;;;;;;4986061;28;20518;-64
2023/09/10 10:07:09;;;;;;;6.82;3.53;;;31.80;83.30;;;;;;4979253;28;20110;-65
2023/09/10 10:09:40;;;;;;;11.18;3.90;;;31.60;83.90;;;;;;4975587;28;20031;-66
2023/09/10 10:12:07;;;;;;;14.27;4.05;;;31.70;84.10;;;;;;4979133;28;20451;-65
2023/09/10 10:14:34;;;;;;;11.85;4.30;;;31.50;85.50;;;;;;4977851;28;20042;-64
2023/09/10 10:17:01;;;;;;;7.78;4.18;;;31.50;86.20;;;;;;4979099;28;20027;-63
2023/09/10 10:19:31;;;;;;;20.08;4.45;;;31.90;86.60;;;;;;4989971;28;20110;-64
2023/09/10 10:21:58;;;;;;;13.63;4.43;;;31.80;85.90;;;;;;4982539;28;20030;-64
2023/09/10 10:24:23;;;;;;;13.30;4.00;;;31.80;88.40;;;;;;4983130;28;20039;-64
2023/09/10 10:26:51;;;;;;;13.07;4.00;;;31.50;86.00;;;;;;4992464;28;20092;-65
2023/09/10 10:29:21;;;;;;;11.93;4.70;;;31.30;88.20;;;;;;4990593;28;20034;-64
2023/09/10 10:31:56;;;;;;;9.02;3.80;;;31.20;87.00;;;;;;4993798;28;20053;-63
2023/09/10 10:34:27;;;;;;;10.10;3.92;;;31.30;88.90;;;;;;4997528;28;20026;-65
2023/09/10 10:37:12;;;;;;;10.82;3.75;;;31.30;89.40;;;;;;4991191;28;20027;-65
2023/09/10 10:39:45;;;;;;;7.50;4.13;;;31.40;87.10;;;;;;4984291;28;20796;-66
2023/09/10 10:42:14;;;;;;;13.07;4.10;;;31.30;88.10;;;;;;4991468;28;20041;-64
2023/09/10 10:44:41;;;;;;;12.43;4.70;;;31.40;91.50;;;;;;4991329;28;20043;-64
2023/09/10 10:47:13;;;;;;;8.77;4.63;;;31.30;88.60;;;;;;4988946;28;20038;-65
2023/09/10 10:49:53;;;;;;;12.27;4.57;;;31.20;90.00;;;;;;4989357;28;20109;-67
2023/09/10 10:52:30;;;;;;;8.90;3.70;;;31.10;88.50;;;;;;4992104;28;20035;-64
2023/09/10 10:54:57;;;;;;;10.50;3.80;;;31.10;90.20;;;;;;4992858;28;21169;-65
2023/09/10 10:57:24;;;;;;;15.40;3.47;;;30.80;89.20;;;;;;4995562;28;20061;-65
2023/09/10 10:59:50;;;;;;;12.30;4.13;;;31.00;88.80;;;;;;4995719;28;20029;-64
2023/09/10 11:02:24;;;;;;;11.00;3.75;;;30.70;88.30;;;;;;4998104;28;20049;-63
2023/09/10 11:04:58;;;;;;;10.48;4.07;;;30.60;90.10;;;;;;4996587;28;20034;-65
2023/09/10 11:07:24;;;;;;;11.57;3.60;;;30.70;91.00;;;;;;4990223;28;20030;-64
2023/09/10 11:09:50;;;;;;;11.82;3.65;;;30.80;89.00;;;;;;4991172;28;20042;-65
2023/09/10 11:12:16;;;;;;;10.55;3.80;;;30.80;89.10;;;;;;4994349;28;20026;-65
2023/09/10 11:15:00;;;;;;;10.77;4.05;;;30.90;89.00;;;;;;4994344;28;20027;-64
2023/09/10 11:17:35;;;;;;;17.13;4.07;;;30.80;90.20;;;;;;4996202;28;20034;-65
2023/09/10 11:20:03;;;;;;;15.98;4.80;;;30.70;88.10;;;;;;4997194;28;20056;-64
2023/09/10 11:23:09;;;;;;;9.20;3.70;;;30.80;89.90;;;;;;4993385;28;20026;-64
2023/09/10 11:25:35;;;;;;;11.52;3.60;;;30.70;85.50;;;;;;4988092;28;20033;-64
2023/09/10 11:28:01;;;;;;;12.25;3.15;;;30.70;89.80;;;;;;4993298;28;20410;-65
2023/09/10 11:30:26;;;;;;;10.27;3.67;;;30.50;88.50;;;;;;4994126;28;20034;-64
2023/09/10 11:33:28;;;;;;;10.73;3.97;;;30.60;86.90;;;;;;4993601;28;20034;-66
2023/09/10 11:35:58;;;;;;;15.05;4.18;;;30.50;85.70;;;;;;4997741;28;20026;-64
2023/09/10 11:38:27;;;;;;;14.10;4.65;;;30.70;89.10;;;;;;4997167;28;20045;-65
2023/09/10 11:40:53;;;;;;;9.77;4.25;;;30.50;88.00;;;;;;4995768;28;20034;-64
2023/09/10 11:43:19;;;;;;;18.08;4.45;;;30.60;89.80;;;;;;4997251;28;20037;-65
2023/09/10 11:45:45;;;;;;;11.80;3.40;;;30.60;90.10;;;;;;4993310;28;20515;-64
2023/09/10 11:48:10;;;;;;;9.52;4.45;;;30.70;90.20;;;;;;5010165;28;20045;-64
2023/09/10 11:50:37;;;;;;;15.80;5.47;;;30.60;90.00;;;;;;4991604;28;20514;-64
2023/09/10 11:53:02;;;;;;;14.68;4.10;;;30.50;90.10;;;;;;4993863;28;20765;-65
2023/09/10 11:55:29;;;;;;;9.45;4.05;;;30.50;90.60;;;;;;4995371;28;20060;-65
2023/09/10 11:57:54;;;;;;;10.02;3.72;;;30.50;88.70;;;;;;4996584;28;20026;-64
2023/09/10 12:00:23;;;;;;;11.75;3.90;;;30.30;89.00;;;;;;4993723;28;20764;-65
2023/09/10 12:02:49;;;;;;;7.90;3.03;;;30.20;89.40;;;;;;4993776;28;20101;-65
2023/09/10 12:05:15;;;;;;;9.07;3.97;;;30.10;88.40;;;;;;4993877;28;20099;-65
2023/09/10 12:07:44;;;;;;;12.75;3.75;;;30.10;90.50;;;;;;4990787;28;20487;-65
2023/09/10 12:10:12;;;;;;;7.03;3.55;;;30.10;88.70;;;;;;4993956;28;20049;-63
2023/09/10 12:12:41;;;;;;;13.75;3.65;;;30.10;89.00;;;;;;4996527;28;20030;-65
2023/09/10 12:15:07;;;;;;;11.85;4.25;;;30.00;90.60;;;;;;4992348;28;20410;-65
2023/09/10 12:17:32;;;;;;;14.02;4.00;;;30.10;90.70;;;;;;4991624;28;20381;-66
2023/09/10 12:19:59;;;;;;;16.88;3.80;;;30.10;89.90;;;;;;4993259;28;20049;-63
2023/09/10 12:22:25;;;;;;;12.93;3.60;;;30.20;90.70;;;;;;4992315;28;20113;-64
2023/09/10 12:24:50;;;;;;;13.70;4.28;;;30.20;90.50;;;;;;4993439;28;20133;-64
2023/09/10 12:27:16;;;;;;;9.93;3.80;;;30.00;90.30;;;;;;4996460;28;20811;-65
2023/09/10 12:29:42;;;;;;;10.60;4.63;;;30.00;91.40;;;;;;4991227;28;20030;-69
2023/09/10 12:32:09;;;;;;;12.45;4.32;;;30.00;90.70;;;;;;4988041;28;20057;-63
2023/09/10 12:34:36;;;;;;;9.63;2.95;;;29.90;90.70;;;;;;4995309;28;20148;-65